sensor_id;sensor_type;location;lat;lon;timestamp;P1;durP1;ratioP1;P2;durP2;ratioP2
71941;SDS011;59997;53.300;-6.260;2024-01-15T00:01:44;11.03;;;2.67;;
71941;SDS011;59997;53.300;-6.260;2024-01-15T00:04:10;14.77;;;3.88;;
71941;SDS011;59997;53.300;-6.260;2024-01-15T00:06:35;12.20;;;2.43;;
71941;SDS011;59997;53.300;-6.260;2024-01-15T00:09:01;14.20;;;2.75;;
71941;SDS011;59997;53.300;-6.260;2024-01-15T00:11:27;10.10;;;2.83;;
71941;SDS011;59997;53.300;-6.260;2024-01-15T00:13:52;10.05;;;2.42;;
71941;SDS011;59997;53.300;-6.260;2024-01-15T00:16:18;18.40;;;2.73;;
71941;SDS011;59997;53.300;-6.260;2024-01-15T00:18:43;16.03;;;3.20;;
71941;SDS011;59997;53.300;-6.260;2024-01-15T00:21:09;9.82;;;2.55;;
71941;SDS011;59997;53.300;-6.260;2024-01-15T00:23:35;14.70;;;3.03;;
71941;SDS011;59997;53.300;-6.260;2024-01-15T00:26:00;16.93;;;3.30;;
71941;SDS011;59997;53.300;-6.260;2024-01-15T00:28:26;13.18;;;3.60;;
71941;SDS011;59997;53.300;-6.260;2024-01-15T00:30:51;14.33;;;2.90;;
71941;SDS011;59997;53.300;-6.260;2024-01-15T00:33:16;12.70;;;3.20;;
71941;SDS011;59997;53.300;-6.260;2024-01-15T00:35:42;14.83;;;3.80;;
71941;SDS011;59997;53.300;-6.260;2024-01-15T00:38:07;13.82;;;3.63;;
71941;SDS011;59997;53.300;-6.260;2024-01-15T00:40:33;11.73;;;3.10;;
71941;SDS011;59997;53.300;-6.260;2024-01-15T00:42:58;13.70;;;2.83;;
71941;SDS011;59997;53.300;-6.260;2024-01-15T00:45:24;10.52;;;2.72;;
71941;SDS011;59997;53.300;-6.260;2024-01-15T00:47:50;11.98;;;2.17;;
71941;SDS011;59997;53.300;-6.260;2024-01-15T00:50:15;13.07;;;2.60;;
71941;SDS011;59997;53.300;-6.260;2024-01-15T00:52:41;12.60;;;2.63;;
71941;SDS011;59997;53.300;-6.260;2024-01-15T00:55:06;12.55;;;3.00;;
71941;SDS011;59997;53.300;-6.260;2024-01-15T00:57:32;15.13;;;2.50;;
71941;SDS011;59997;53.300;-6.260;2024-01-15T00:59:58;11.10;;;2.92;;
71941;SDS011;59997;53.300;-6.260;2024-01-15T01:02:23;16.10;;;3.17;;
71941;SDS011;59997;53.300;-6.260;2024-01-15T01:04:49;9.57;;;2.58;;
71941;SDS011;59997;53.300;-6.260;2024-01-15T01:07:14;11.57;;;2.80;;
71941;SDS011;59997;53.300;-6.260;2024-01-15T01:09:40;12.00;;;3.73;;
71941;SDS011;59997;53.300;-6.260;2024-01-15T01:12:05;11.23;;;2.70;;
71941;SDS011;59997;53.300;-6.260;2024-01-15T01:14:31;10.40;;;2.22;;
71941;SDS011;59997;53.300;-6.260;2024-01-15T01:16:57;12.27;;;2.75;;
71941;SDS011;59997;53.300;-6.260;2024-01-15T01:19:22;9.65;;;2.65;;
71941;SDS011;59997;53.300;-6.260;2024-01-15T01:21:48;10.83;;;2.37;;
71941;SDS011;59997;53.300;-6.260;2024-01-15T01:24:14;14.75;;;2.75;;
71941;SDS011;59997;53.300;-6.260;2024-01-15T01:26:39;11.57;;;2.20;;
71941;SDS011;59997;53.300;-6.260;2024-01-15T01:29:04;10.13;;;2.70;;
71941;SDS011;59997;53.300;-6.260;2024-01-15T01:31:30;18.80;;;2.93;;
71941;SDS011;59997;53.300;-6.260;2024-01-15T01:33:55;11.70;;;2.90;;
71941;SDS011;59997;53.300;-6.260;2024-01-15T01:36:21;14.13;;;2.78;;
71941;SDS011;59997;53.300;-6.260;2024-01-15T01:38:46;14.67;;;2.97;;
71941;SDS011;59997;53.300;-6.260;2024-01-15T01:41:12;11.73;;;2.10;;
71941;SDS011;59997;53.300;-6.260;2024-01-15T01:43:37;10.83;;;2.50;;
71941;SDS011;59997;53.300;-6.260;2024-01-15T01:46:02;12.03;;;2.43;;
71941;SDS011;59997;53.300;-6.260;2024-01-15T01:48:28;11.60;;;2.20;;
71941;SDS011;59997;53.300;-6.260;2024-01-15T01:50:56;11.57;;;2.63;;
71941;SDS011;59997;53.300;-6.260;2024-01-15T01:53:23;9.93;;;2.07;;
71941;SDS011;59997;53.300;-6.260;2024-01-15T01:55:49;11.73;;;1.73;;
71941;SDS011;59997;53.300;-6.260;2024-01-15T01:58:15;13.50;;;2.45;;
71941;SDS011;59997;53.300;-6.260;2024-01-15T02:00:41;14.35;;;2.22;;
71941;SDS011;59997;53.300;-6.260;2024-01-15T02:03:08;12.25;;;2.42;;
71941;SDS011;59997;53.300;-6.260;2024-01-15T02:05:33;17.63;;;1.73;;
71941;SDS011;59997;53.300;-6.260;2024-01-15T02:08:00;14.52;;;1.85;;
71941;SDS011;59997;53.300;-6.260;2024-01-15T02:10:26;12.63;;;2.47;;
71941;SDS011;59997;53.300;-6.260;2024-01-15T02:12:51;7.60;;;2.20;;
71941;SDS011;59997;53.300;-6.260;2024-01-15T02:15:17;12.95;;;2.17;;
71941;SDS011;59997;53.300;-6.260;2024-01-15T02:17:58;9.10;;;1.93;;
71941;SDS011;59997;53.300;-6.260;2024-01-15T02:20:28;12.25;;;1.92;;
71941;SDS011;59997;53.300;-6.260;2024-01-15T02:22:54;12.68;;;2.40;;
71941;SDS011;59997;53.300;-6.260;2024-01-15T02:25:26;13.83;;;2.17;;
71941;SDS011;59997;53.300;-6.260;2024-01-15T02:27:52;16.63;;;2.13;;
71941;SDS011;59997;53.300;-6.260;2024-01-15T02:30:19;8.88;;;2.25;;
71941;SDS011;59997;53.300;-6.260;2024-01-15T02:32:44;7.77;;;1.83;;
71941;SDS011;59997;53.300;-6.260;2024-01-15T02:35:11;16.45;;;2.17;;
71941;SDS011;59997;53.300;-6.260;2024-01-15T02:37:36;11.47;;;1.83;;
71941;SDS011;59997;53.300;-6.260;2024-01-15T02:40:02;11.20;;;1.95;;
71941;SDS011;59997;53.300;-6.260;2024-01-15T02:42:27;8.80;;;1.80;;
71941;SDS011;59997;53.300;-6.260;2024-01-15T02:44:53;8.70;;;1.70;;
71941;SDS011;59997;53.300;-6.260;2024-01-15T02:47:18;10.18;;;1.48;;
71941;SDS011;59997;53.300;-6.260;2024-01-15T02:49:43;11.00;;;1.50;;
71941;SDS011;59997;53.300;-6.260;2024-01-15T02:52:09;10.20;;;2.10;;
71941;SDS011;59997;53.300;-6.260;2024-01-15T02:54:34;10.60;;;1.63;;
71941;SDS011;59997;53.300;-6.260;2024-01-15T02:57:00;7.37;;;1.23;;
71941;SDS011;59997;53.300;-6.260;2024-01-15T02:59:25;10.40;;;2.55;;
71941;SDS011;59997;53.300;-6.260;2024-01-15T03:01:51;8.17;;;1.50;;
71941;SDS011;59997;53.300;-6.260;2024-01-15T03:04:16;7.47;;;1.27;;
71941;SDS011;59997;53.300;-6.260;2024-01-15T03:06:42;7.73;;;1.33;;
71941;SDS011;59997;53.300;-6.260;2024-01-15T03:09:07;10.18;;;1.60;;
71941;SDS011;59997;53.300;-6.260;2024-01-15T03:11:39;11.10;;;1.70;;
71941;SDS011;59997;53.300;-6.260;2024-01-15T03:14:05;7.82;;;0.90;;
71941;SDS011;59997;53.300;-6.260;2024-01-15T03:16:30;9.23;;;1.00;;
71941;SDS011;59997;53.300;-6.260;2024-01-15T03:18:56;9.67;;;1.30;;
71941;SDS011;59997;53.300;-6.260;2024-01-15T03:21:21;11.07;;;1.30;;
71941;SDS011;59997;53.300;-6.260;2024-01-15T03:23:46;14.15;;;1.80;;
71941;SDS011;59997;53.300;-6.260;2024-01-15T03:26:12;7.50;;;1.40;;
71941;SDS011;59997;53.300;-6.260;2024-01-15T03:28:37;10.90;;;1.80;;
71941;SDS011;59997;53.300;-6.260;2024-01-15T03:31:03;9.23;;;1.07;;
71941;SDS011;59997;53.300;-6.260;2024-01-15T03:33:28;9.65;;;1.17;;
71941;SDS011;59997;53.300;-6.260;2024-01-15T03:35:54;9.10;;;1.20;;
71941;SDS011;59997;53.300;-6.260;2024-01-15T03:38:19;9.17;;;1.30;;
71941;SDS011;59997;53.300;-6.260;2024-01-15T03:40:45;6.30;;;0.90;;
71941;SDS011;59997;53.300;-6.260;2024-01-15T03:43:11;11.88;;;1.25;;
71941;SDS011;59997;53.300;-6.260;2024-01-15T03:45:37;8.60;;;1.10;;
71941;SDS011;59997;53.300;-6.260;2024-01-15T03:48:02;10.13;;;1.42;;
71941;SDS011;59997;53.300;-6.260;2024-01-15T03:50:28;12.03;;;1.40;;
71941;SDS011;59997;53.300;-6.260;2024-01-15T03:52:53;8.63;;;1.23;;
71941;SDS011;59997;53.300;-6.260;2024-01-15T03:55:19;10.05;;;0.93;;
71941;SDS011;59997;53.300;-6.260;2024-01-15T03:57:44;12.90;;;1.60;;
71941;SDS011;59997;53.300;-6.260;2024-01-15T04:00:10;9.10;;;1.40;;
71941;SDS011;59997;53.300;-6.260;2024-01-15T04:02:36;8.57;;;1.10;;
71941;SDS011;59997;53.300;-6.260;2024-01-15T04:05:02;9.30;;;1.40;;
71941;SDS011;59997;53.300;-6.260;2024-01-15T04:07:27;6.15;;;1.08;;
71941;SDS011;59997;53.300;-6.260;2024-01-15T04:09:52;7.47;;;1.10;;
71941;SDS011;59997;53.300;-6.260;2024-01-15T04:12:18;14.60;;;1.00;;
71941;SDS011;59997;53.300;-6.260;2024-01-15T04:14:43;10.33;;;1.00;;
71941;SDS011;59997;53.300;-6.260;2024-01-15T04:17:09;10.43;;;1.20;;
71941;SDS011;59997;53.300;-6.260;2024-01-15T04:19:34;10.23;;;1.45;;
71941;SDS011;59997;53.300;-6.260;2024-01-15T04:22:00;12.20;;;1.23;;
71941;SDS011;59997;53.300;-6.260;2024-01-15T04:24:25;11.57;;;1.10;;
71941;SDS011;59997;53.300;-6.260;2024-01-15T04:26:51;11.18;;;1.30;;
71941;SDS011;59997;53.300;-6.260;2024-01-15T04:29:17;7.88;;;1.42;;
71941;SDS011;59997;53.300;-6.260;2024-01-15T04:31:43;10.13;;;1.20;;
71941;SDS011;59997;53.300;-6.260;2024-01-15T04:34:08;8.97;;;0.87;;
71941;SDS011;59997;53.300;-6.260;2024-01-15T04:36:42;18.43;;;1.67;;
71941;SDS011;59997;53.300;-6.260;2024-01-15T04:39:08;8.30;;;1.02;;
71941;SDS011;59997;53.300;-6.260;2024-01-15T04:41:34;7.97;;;0.77;;
71941;SDS011;59997;53.300;-6.260;2024-01-15T04:43:59;6.28;;;0.93;;
71941;SDS011;59997;53.300;-6.260;2024-01-15T04:46:25;9.50;;;0.73;;
71941;SDS011;59997;53.300;-6.260;2024-01-15T04:48:51;9.77;;;1.00;;
71941;SDS011;59997;53.300;-6.260;2024-01-15T04:51:16;6.97;;;0.83;;
71941;SDS011;59997;53.300;-6.260;2024-01-15T04:53:42;10.93;;;1.27;;
71941;SDS011;59997;53.300;-6.260;2024-01-15T04:56:07;7.97;;;0.90;;
71941;SDS011;59997;53.300;-6.260;2024-01-15T04:58:33;10.67;;;1.40;;
71941;SDS011;59997;53.300;-6.260;2024-01-15T05:00:58;10.00;;;1.00;;
71941;SDS011;59997;53.300;-6.260;2024-01-15T05:03:24;9.15;;;0.98;;
71941;SDS011;59997;53.300;-6.260;2024-01-15T05:05:50;11.55;;;1.20;;
71941;SDS011;59997;53.300;-6.260;2024-01-15T05:08:15;12.70;;;1.08;;
71941;SDS011;59997;53.300;-6.260;2024-01-15T05:10:41;9.73;;;1.17;;
71941;SDS011;59997;53.300;-6.260;2024-01-15T05:13:06;8.93;;;1.30;;
71941;SDS011;59997;53.300;-6.260;2024-01-15T05:15:31;9.32;;;1.33;;
71941;SDS011;59997;53.300;-6.260;2024-01-15T05:17:57;7.18;;;1.10;;
71941;SDS011;59997;53.300;-6.260;2024-01-15T05:20:22;12.37;;;1.40;;
71941;SDS011;59997;53.300;-6.260;2024-01-15T05:22:48;8.90;;;1.23;;
71941;SDS011;59997;53.300;-6.260;2024-01-15T05:25:13;8.70;;;1.57;;
71941;SDS011;59997;53.300;-6.260;2024-01-15T05:27:39;8.13;;;0.90;;
71941;SDS011;59997;53.300;-6.260;2024-01-15T05:30:04;11.63;;;1.47;;
71941;SDS011;59997;53.300;-6.260;2024-01-15T05:32:31;7.22;;;0.80;;
71941;SDS011;59997;53.300;-6.260;2024-01-15T05:34:57;10.07;;;1.42;;
71941;SDS011;59997;53.300;-6.260;2024-01-15T05:37:22;6.22;;;1.00;;
71941;SDS011;59997;53.300;-6.260;2024-01-15T05:39:48;8.65;;;0.80;;
71941;SDS011;59997;53.300;-6.260;2024-01-15T05:42:13;6.83;;;0.90;;
71941;SDS011;59997;53.300;-6.260;2024-01-15T05:44:39;11.53;;;1.30;;
71941;SDS011;59997;53.300;-6.260;2024-01-15T05:47:04;7.37;;;0.53;;
71941;SDS011;59997;53.300;-6.260;2024-01-15T05:49:30;4.25;;;0.70;;
71941;SDS011;59997;53.300;-6.260;2024-01-15T05:51:55;8.00;;;1.37;;
71941;SDS011;59997;53.300;-6.260;2024-01-15T05:54:21;5.47;;;0.80;;
71941;SDS011;59997;53.300;-6.260;2024-01-15T05:56:46;12.00;;;1.30;;
71941;SDS011;59997;53.300;-6.260;2024-01-15T05:59:12;14.35;;;0.90;;
71941;SDS011;59997;53.300;-6.260;2024-01-15T06:01:37;9.23;;;0.70;;
71941;SDS011;59997;53.300;-6.260;2024-01-15T06:04:03;11.60;;;1.20;;
71941;SDS011;59997;53.300;-6.260;2024-01-15T06:06:28;10.55;;;0.77;;
71941;SDS011;59997;53.300;-6.260;2024-01-15T06:08:54;8.77;;;1.07;;
71941;SDS011;59997;53.300;-6.260;2024-01-15T06:11:19;8.53;;;1.10;;
71941;SDS011;59997;53.300;-6.260;2024-01-15T06:13:45;10.35;;;1.30;;
71941;SDS011;59997;53.300;-6.260;2024-01-15T06:16:14;7.17;;;1.30;;
71941;SDS011;59997;53.300;-6.260;2024-01-15T06:18:41;13.02;;;1.33;;
71941;SDS011;59997;53.300;-6.260;2024-01-15T06:21:07;7.05;;;1.00;;
71941;SDS011;59997;53.300;-6.260;2024-01-15T06:23:32;10.63;;;0.90;;
71941;SDS011;59997;53.300;-6.260;2024-01-15T06:25:58;7.73;;;1.63;;
71941;SDS011;59997;53.300;-6.260;2024-01-15T06:28:23;9.65;;;2.38;;
71941;SDS011;59997;53.300;-6.260;2024-01-15T06:30:49;7.83;;;1.67;;
71941;SDS011;59997;53.300;-6.260;2024-01-15T06:33:14;10.03;;;1.60;;
71941;SDS011;59997;53.300;-6.260;2024-01-15T06:35:40;8.30;;;1.50;;
71941;SDS011;59997;53.300;-6.260;2024-01-15T06:38:05;6.78;;;1.40;;
71941;SDS011;59997;53.300;-6.260;2024-01-15T06:40:31;12.18;;;1.48;;
71941;SDS011;59997;53.300;-6.260;2024-01-15T06:42:56;9.37;;;1.30;;
71941;SDS011;59997;53.300;-6.260;2024-01-15T06:45:21;10.97;;;1.20;;
71941;SDS011;59997;53.300;-6.260;2024-01-15T06:47:47;10.93;;;1.83;;
71941;SDS011;59997;53.300;-6.260;2024-01-15T06:50:12;13.27;;;2.58;;
71941;SDS011;59997;53.300;-6.260;2024-01-15T06:52:38;10.03;;;1.60;;
71941;SDS011;59997;53.300;-6.260;2024-01-15T06:55:03;7.07;;;1.40;;
71941;SDS011;59997;53.300;-6.260;2024-01-15T06:57:30;8.82;;;1.20;;
71941;SDS011;59997;53.300;-6.260;2024-01-15T06:59:56;7.37;;;0.87;;
71941;SDS011;59997;53.300;-6.260;2024-01-15T07:02:21;7.90;;;1.30;;
71941;SDS011;59997;53.300;-6.260;2024-01-15T07:04:47;6.47;;;1.25;;
71941;SDS011;59997;53.300;-6.260;2024-01-15T07:07:12;9.00;;;1.10;;
71941;SDS011;59997;53.300;-6.260;2024-01-15T07:09:38;8.17;;;0.93;;
71941;SDS011;59997;53.300;-6.260;2024-01-15T07:12:03;7.73;;;0.93;;
71941;SDS011;59997;53.300;-6.260;2024-01-15T07:14:29;11.10;;;1.15;;
71941;SDS011;59997;53.300;-6.260;2024-01-15T07:16:54;13.13;;;1.20;;
71941;SDS011;59997;53.300;-6.260;2024-01-15T07:19:20;8.50;;;1.30;;
71941;SDS011;59997;53.300;-6.260;2024-01-15T07:21:45;13.00;;;1.43;;
71941;SDS011;59997;53.300;-6.260;2024-01-15T07:24:11;10.88;;;1.10;;
71941;SDS011;59997;53.300;-6.260;2024-01-15T07:26:37;7.13;;;1.20;;
71941;SDS011;59997;53.300;-6.260;2024-01-15T07:29:02;6.18;;;1.05;;
71941;SDS011;59997;53.300;-6.260;2024-01-15T07:31:28;7.43;;;1.40;;
71941;SDS011;59997;53.300;-6.260;2024-01-15T07:33:53;9.67;;;1.10;;
71941;SDS011;59997;53.300;-6.260;2024-01-15T07:36:19;11.50;;;1.38;;
71941;SDS011;59997;53.300;-6.260;2024-01-15T07:38:44;11.40;;;1.67;;
71941;SDS011;59997;53.300;-6.260;2024-01-15T07:41:10;16.57;;;1.50;;
71941;SDS011;59997;53.300;-6.260;2024-01-15T07:43:36;11.00;;;2.22;;
71941;SDS011;59997;53.300;-6.260;2024-01-15T07:46:03;7.72;;;1.42;;
71941;SDS011;59997;53.300;-6.260;2024-01-15T07:48:29;9.60;;;1.70;;
71941;SDS011;59997;53.300;-6.260;2024-01-15T07:50:55;13.07;;;1.77;;
71941;SDS011;59997;53.300;-6.260;2024-01-15T07:53:20;9.45;;;1.52;;
71941;SDS011;59997;53.300;-6.260;2024-01-15T07:55:46;12.30;;;1.90;;
71941;SDS011;59997;53.300;-6.260;2024-01-15T07:58:11;8.70;;;1.73;;
71941;SDS011;59997;53.300;-6.260;2024-01-15T08:00:37;8.77;;;1.38;;
71941;SDS011;59997;53.300;-6.260;2024-01-15T08:03:02;12.60;;;1.13;;
71941;SDS011;59997;53.300;-6.260;2024-01-15T08:05:28;9.40;;;2.23;;
71941;SDS011;59997;53.300;-6.260;2024-01-15T08:07:53;9.47;;;1.70;;
71941;SDS011;59997;53.300;-6.260;2024-01-15T08:10:19;8.60;;;1.33;;
71941;SDS011;59997;53.300;-6.260;2024-01-15T08:12:44;9.87;;;1.47;;
71941;SDS011;59997;53.300;-6.260;2024-01-15T08:15:10;8.60;;;1.20;;
71941;SDS011;59997;53.300;-6.260;2024-01-15T08:17:35;13.57;;;1.70;;
71941;SDS011;59997;53.300;-6.260;2024-01-15T08:20:00;10.37;;;0.90;;
71941;SDS011;59997;53.300;-6.260;2024-01-15T08:22:26;4.70;;;0.83;;
71941;SDS011;59997;53.300;-6.260;2024-01-15T08:24:51;8.47;;;1.30;;
71941;SDS011;59997;53.300;-6.260;2024-01-15T08:27:18;8.40;;;1.50;;
71941;SDS011;59997;53.300;-6.260;2024-01-15T08:29:45;14.98;;;1.38;;
71941;SDS011;59997;53.300;-6.260;2024-01-15T08:32:10;10.60;;;1.80;;
71941;SDS011;59997;53.300;-6.260;2024-01-15T08:34:39;7.75;;;1.30;;
71941;SDS011;59997;53.300;-6.260;2024-01-15T08:37:05;13.45;;;1.73;;
71941;SDS011;59997;53.300;-6.260;2024-01-15T08:39:30;14.30;;;1.60;;
71941;SDS011;59997;53.300;-6.260;2024-01-15T08:41:55;9.93;;;1.07;;
71941;SDS011;59997;53.300;-6.260;2024-01-15T08:44:21;12.60;;;1.40;;
71941;SDS011;59997;53.300;-6.260;2024-01-15T08:46:46;8.57;;;1.10;;
71941;SDS011;59997;53.300;-6.260;2024-01-15T08:49:12;6.57;;;1.30;;
71941;SDS011;59997;53.300;-6.260;2024-01-15T08:51:38;8.15;;;1.73;;
71941;SDS011;59997;53.300;-6.260;2024-01-15T08:54:04;12.20;;;1.40;;
71941;SDS011;59997;53.300;-6.260;2024-01-15T08:56:29;10.20;;;1.92;;
71941;SDS011;59997;53.300;-6.260;2024-01-15T08:58:55;10.43;;;1.20;;
71941;SDS011;59997;53.300;-6.260;2024-01-15T09:01:20;8.90;;;1.38;;
71941;SDS011;59997;53.300;-6.260;2024-01-15T09:03:46;12.63;;;1.40;;
71941;SDS011;59997;53.300;-6.260;2024-01-15T09:06:13;9.17;;;1.17;;
71941;SDS011;59997;53.300;-6.260;2024-01-15T09:08:38;10.05;;;1.70;;
71941;SDS011;59997;53.300;-6.260;2024-01-15T09:11:04;11.40;;;2.17;;
71941;SDS011;59997;53.300;-6.260;2024-01-15T09:13:29;9.37;;;1.73;;
71941;SDS011;59997;53.300;-6.260;2024-01-15T09:15:55;9.60;;;1.55;;
71941;SDS011;59997;53.300;-6.260;2024-01-15T09:18:21;11.67;;;1.60;;
71941;SDS011;59997;53.300;-6.260;2024-01-15T09:20:46;5.55;;;1.05;;
71941;SDS011;59997;53.300;-6.260;2024-01-15T09:23:12;11.50;;;2.00;;
71941;SDS011;59997;53.300;-6.260;2024-01-15T09:25:37;8.03;;;1.40;;
71941;SDS011;59997;53.300;-6.260;2024-01-15T09:28:03;4.95;;;0.90;;
71941;SDS011;59997;53.300;-6.260;2024-01-15T09:30:29;8.60;;;1.30;;
71941;SDS011;59997;53.300;-6.260;2024-01-15T09:32:54;6.17;;;1.10;;
71941;SDS011;59997;53.300;-6.260;2024-01-15T09:35:20;19.38;;;2.60;;
71941;SDS011;59997;53.300;-6.260;2024-01-15T09:37:45;14.43;;;2.40;;
71941;SDS011;59997;53.300;-6.260;2024-01-15T09:40:14;16.37;;;3.50;;
71941;SDS011;59997;53.300;-6.260;2024-01-15T09:42:40;10.45;;;2.55;;
71941;SDS011;59997;53.300;-6.260;2024-01-15T09:45:07;9.57;;;2.25;;
71941;SDS011;59997;53.300;-6.260;2024-01-15T09:47:34;10.27;;;2.35;;
71941;SDS011;59997;53.300;-6.260;2024-01-15T09:50:00;9.93;;;2.07;;
71941;SDS011;59997;53.300;-6.260;2024-01-15T09:52:28;13.25;;;1.70;;
71941;SDS011;59997;53.300;-6.260;2024-01-15T09:54:56;9.75;;;1.30;;
71941;SDS011;59997;53.300;-6.260;2024-01-15T09:57:25;12.45;;;1.58;;
71941;SDS011;59997;53.300;-6.260;2024-01-15T09:59:50;14.33;;;1.70;;
71941;SDS011;59997;53.300;-6.260;2024-01-15T10:02:17;5.50;;;1.25;;
71941;SDS011;59997;53.300;-6.260;2024-01-15T10:04:44;10.23;;;1.52;;
71941;SDS011;59997;53.300;-6.260;2024-01-15T10:07:09;7.63;;;1.42;;
71941;SDS011;59997;53.300;-6.260;2024-01-15T10:09:41;9.17;;;1.20;;
71941;SDS011;59997;53.300;-6.260;2024-01-15T10:12:06;7.47;;;0.90;;
71941;SDS011;59997;53.300;-6.260;2024-01-15T10:14:33;6.33;;;0.93;;
71941;SDS011;59997;53.300;-6.260;2024-01-15T10:16:58;7.15;;;1.15;;
71941;SDS011;59997;53.300;-6.260;2024-01-15T10:19:24;7.53;;;0.90;;
71941;SDS011;59997;53.300;-6.260;2024-01-15T10:21:49;7.57;;;1.13;;
71941;SDS011;59997;53.300;-6.260;2024-01-15T10:24:15;11.60;;;1.37;;
71941;SDS011;59997;53.300;-6.260;2024-01-15T10:26:40;10.63;;;1.20;;
71941;SDS011;59997;53.300;-6.260;2024-01-15T10:29:05;9.88;;;1.40;;
71941;SDS011;59997;53.300;-6.260;2024-01-15T10:31:31;10.50;;;1.23;;
71941;SDS011;59997;53.300;-6.260;2024-01-15T10:34:18;7.05;;;1.10;;
71941;SDS011;59997;53.300;-6.260;2024-01-15T10:36:45;8.82;;;1.48;;
71941;SDS011;59997;53.300;-6.260;2024-01-15T10:39:13;9.38;;;1.30;;
71941;SDS011;59997;53.300;-6.260;2024-01-15T10:41:38;8.70;;;1.67;;
71941;SDS011;59997;53.300;-6.260;2024-01-15T10:44:04;8.40;;;1.33;;
71941;SDS011;59997;53.300;-6.260;2024-01-15T10:46:30;8.33;;;1.13;;
71941;SDS011;59997;53.300;-6.260;2024-01-15T10:48:57;7.60;;;1.20;;
71941;SDS011;59997;53.300;-6.260;2024-01-15T10:51:23;8.70;;;1.00;;
71941;SDS011;59997;53.300;-6.260;2024-01-15T10:53:51;10.07;;;1.23;;
71941;SDS011;59997;53.300;-6.260;2024-01-15T10:56:18;8.07;;;1.38;;
71941;SDS011;59997;53.300;-6.260;2024-01-15T10:58:45;9.25;;;1.60;;
71941;SDS011;59997;53.300;-6.260;2024-01-15T11:01:11;8.80;;;1.20;;
71941;SDS011;59997;53.300;-6.260;2024-01-15T11:03:38;13.35;;;1.52;;
71941;SDS011;59997;53.300;-6.260;2024-01-15T11:06:12;7.72;;;1.90;;
71941;SDS011;59997;53.300;-6.260;2024-01-15T11:08:42;11.75;;;1.60;;
71941;SDS011;59997;53.300;-6.260;2024-01-15T11:11:08;9.93;;;1.80;;
71941;SDS011;59997;53.300;-6.260;2024-01-15T11:16:04;8.15;;;1.40;;
71941;SDS011;59997;53.300;-6.260;2024-01-15T11:18:43;6.97;;;1.15;;
71941;SDS011;59997;53.300;-6.260;2024-01-15T11:21:26;8.68;;;1.27;;
71941;SDS011;59997;53.300;-6.260;2024-01-15T11:29:10;6.43;;;1.25;;
71941;SDS011;59997;53.300;-6.260;2024-01-15T11:38:26;10.43;;;1.30;;
71941;SDS011;59997;53.300;-6.260;2024-01-15T11:40:37;6.15;;;1.50;;
71941;SDS011;59997;53.300;-6.260;2024-01-15T11:43:03;7.95;;;1.33;;
71941;SDS011;59997;53.300;-6.260;2024-01-15T11:45:31;10.40;;;2.38;;
71941;SDS011;59997;53.300;-6.260;2024-01-15T11:50:39;10.38;;;1.90;;
71941;SDS011;59997;53.300;-6.260;2024-01-15T11:53:08;6.35;;;1.35;;
71941;SDS011;59997;53.300;-6.260;2024-01-15T11:55:41;7.68;;;1.20;;
71941;SDS011;59997;53.300;-6.260;2024-01-15T11:58:10;9.13;;;1.73;;
71941;SDS011;59997;53.300;-6.260;2024-01-15T12:00:39;7.47;;;1.50;;
71941;SDS011;59997;53.300;-6.260;2024-01-15T12:03:14;6.60;;;1.50;;
71941;SDS011;59997;53.300;-6.260;2024-01-15T12:05:40;6.20;;;1.50;;
71941;SDS011;59997;53.300;-6.260;2024-01-15T12:08:08;9.18;;;1.80;;
71941;SDS011;59997;53.300;-6.260;2024-01-15T12:10:38;11.60;;;1.48;;
71941;SDS011;59997;53.300;-6.260;2024-01-15T12:13:12;9.93;;;1.70;;
71941;SDS011;59997;53.300;-6.260;2024-01-15T12:15:38;9.75;;;1.73;;
71941;SDS011;59997;53.300;-6.260;2024-01-15T12:18:08;9.57;;;1.90;;
71941;SDS011;59997;53.300;-6.260;2024-01-15T12:20:34;9.95;;;1.50;;
71941;SDS011;59997;53.300;-6.260;2024-01-15T12:23:01;7.45;;;1.50;;
71941;SDS011;59997;53.300;-6.260;2024-01-15T12:25:28;9.38;;;1.55;;
71941;SDS011;59997;53.300;-6.260;2024-01-15T12:27:55;9.40;;;1.40;;
71941;SDS011;59997;53.300;-6.260;2024-01-15T12:30:21;8.68;;;1.10;;
71941;SDS011;59997;53.300;-6.260;2024-01-15T12:32:47;11.10;;;2.22;;
71941;SDS011;59997;53.300;-6.260;2024-01-15T12:35:13;9.60;;;1.85;;
71941;SDS011;59997;53.300;-6.260;2024-01-15T12:37:40;10.45;;;1.70;;
71941;SDS011;59997;53.300;-6.260;2024-01-15T12:40:07;7.75;;;1.40;;
71941;SDS011;59997;53.300;-6.260;2024-01-15T12:42:34;10.38;;;1.30;;
71941;SDS011;59997;53.300;-6.260;2024-01-15T12:45:09;6.75;;;1.02;;
71941;SDS011;59997;53.300;-6.260;2024-01-15T12:47:36;8.60;;;1.27;;
71941;SDS011;59997;53.300;-6.260;2024-01-15T12:50:02;9.10;;;1.38;;
71941;SDS011;59997;53.300;-6.260;2024-01-15T12:52:31;8.90;;;1.20;;
71941;SDS011;59997;53.300;-6.260;2024-01-15T12:54:57;9.05;;;1.80;;
71941;SDS011;59997;53.300;-6.260;2024-01-15T12:57:23;10.93;;;1.63;;
71941;SDS011;59997;53.300;-6.260;2024-01-15T12:59:48;9.32;;;1.80;;
71941;SDS011;59997;53.300;-6.260;2024-01-15T13:02:15;8.75;;;1.60;;
71941;SDS011;59997;53.300;-6.260;2024-01-15T13:04:41;6.70;;;1.65;;
71941;SDS011;59997;53.300;-6.260;2024-01-15T13:07:08;9.35;;;1.42;;
71941;SDS011;59997;53.300;-6.260;2024-01-15T13:09:34;10.43;;;1.88;;
71941;SDS011;59997;53.300;-6.260;2024-01-15T13:12:00;13.57;;;1.70;;
71941;SDS011;59997;53.300;-6.260;2024-01-15T13:14:26;10.45;;;1.48;;
71941;SDS011;59997;53.300;-6.260;2024-01-15T13:16:52;9.07;;;1.27;;
71941;SDS011;59997;53.300;-6.260;2024-01-15T13:19:19;10.13;;;1.40;;
71941;SDS011;59997;53.300;-6.260;2024-01-15T13:21:46;11.23;;;1.50;;
71941;SDS011;59997;53.300;-6.260;2024-01-15T13:24:11;8.07;;;1.57;;
71941;SDS011;59997;53.300;-6.260;2024-01-15T13:26:37;6.33;;;1.70;;
71941;SDS011;59997;53.300;-6.260;2024-01-15T13:29:03;14.02;;;1.83;;
71941;SDS011;59997;53.300;-6.260;2024-01-15T13:31:29;14.90;;;2.15;;
71941;SDS011;59997;53.300;-6.260;2024-01-15T13:33:58;10.40;;;1.63;;
71941;SDS011;59997;53.300;-6.260;2024-01-15T13:36:27;12.10;;;2.13;;
71941;SDS011;59997;53.300;-6.260;2024-01-15T13:38:53;7.70;;;1.48;;
71941;SDS011;59997;53.300;-6.260;2024-01-15T13:41:22;12.82;;;1.95;;
71941;SDS011;59997;53.300;-6.260;2024-01-15T13:43:52;11.02;;;1.80;;
71941;SDS011;59997;53.300;-6.260;2024-01-15T13:46:18;16.73;;;1.85;;
71941;SDS011;59997;53.300;-6.260;2024-01-15T13:48:45;10.60;;;1.63;;
71941;SDS011;59997;53.300;-6.260;2024-01-15T13:51:10;8.82;;;1.98;;
71941;SDS011;59997;53.300;-6.260;2024-01-15T13:53:37;7.03;;;1.40;;
71941;SDS011;59997;53.300;-6.260;2024-01-15T13:56:03;8.90;;;1.50;;
71941;SDS011;59997;53.300;-6.260;2024-01-15T13:58:30;9.23;;;1.60;;
71941;SDS011;59997;53.300;-6.260;2024-01-15T14:00:56;8.13;;;1.20;;
71941;SDS011;59997;53.300;-6.260;2024-01-15T14:03:21;8.47;;;1.80;;
71941;SDS011;59997;53.300;-6.260;2024-01-15T14:05:47;8.80;;;1.17;;
71941;SDS011;59997;53.300;-6.260;2024-01-15T14:08:12;8.93;;;2.23;;
71941;SDS011;59997;53.300;-6.260;2024-01-15T14:10:38;8.20;;;1.50;;
71941;SDS011;59997;53.300;-6.260;2024-01-15T14:13:03;9.13;;;1.40;;
71941;SDS011;59997;53.300;-6.260;2024-01-15T14:15:29;8.47;;;1.50;;
71941;SDS011;59997;53.300;-6.260;2024-01-15T14:17:54;6.23;;;1.50;;
71941;SDS011;59997;53.300;-6.260;2024-01-15T14:20:20;8.98;;;1.60;;
71941;SDS011;59997;53.300;-6.260;2024-01-15T14:22:46;7.07;;;1.13;;
71941;SDS011;59997;53.300;-6.260;2024-01-15T14:25:11;12.03;;;1.80;;
71941;SDS011;59997;53.300;-6.260;2024-01-15T14:27:37;7.88;;;1.20;;
71941;SDS011;59997;53.300;-6.260;2024-01-15T14:30:02;9.30;;;1.40;;
71941;SDS011;59997;53.300;-6.260;2024-01-15T14:32:28;7.93;;;1.85;;
71941;SDS011;59997;53.300;-6.260;2024-01-15T14:34:54;14.30;;;2.07;;
71941;SDS011;59997;53.300;-6.260;2024-01-15T14:37:21;9.13;;;1.50;;
71941;SDS011;59997;53.300;-6.260;2024-01-15T14:39:47;9.88;;;1.92;;